KLGC/LGC METAR and TAF weather

Enter ICAO airport designator
Station Type Date Time Source
KLGC METAR 2019/02/16 17:35 UTC NOAA

KLGC 161735Z AUTO 30005KT 10SM SCT050 21/14 A2978 RMK AO2 T02050138


Station Type Date Time Source
KLGC Decoded METAR 2019/02/16 17:35 UTC NOAA

La Grange, Callaway Airport, GA, United States (KLGC) 33-00-32N 085-04-21W
Feb 16, 2019 - 12:35 PM EST / 2019.02.16 1735 UTC
Wind: from the WNW (300 degrees) at 6 MPH (5 KT):0
Visibility: 10 mile(s):0
Sky conditions: partly cloudy
Temperature: 68.9 F (20.5 C)
Dew Point: 56.8 F (13.8 C)
Relative Humidity: 65%
Pressure (altimeter): 29.78 in. Hg (1008 hPa)
ob: KLGC 161735Z AUTO 30005KT 10SM SCT050 21/14 A2978 RMK AO2 T02050138
cycle: 17

Station Type Date Time Source
KLGC TAF UTC NOAA

Error!


Example: see airport list